Time;durP1;ratioP1;P1;durP2;ratioP2;P2;SDS_P1;SDS_P2;PMS_P1;PMS_P2;Temp;Humidity;BMP_temperature;BMP_pressure;BME280_temperature;BME280_humidity;BME280_pressure;Samples;Min_cycle;Max_cycle;Signal;HPM_P1;HPM_P2
2022/01/19 00:00:23;;;;;;;6.73;5.47;;;6.60;95.70;;;;;;5067695;28;20565;-45
2022/01/19 00:02:49;;;;;;;10.97;6.50;;;6.60;95.90;;;;;;5064937;28;20557;-45
2022/01/19 00:05:16;;;;;;;8.60;3.60;;;6.60;95.70;;;;;;5064797;28;20481;-45
2022/01/19 00:07:44;;;;;;;7.83;5.00;;;6.50;95.50;;;;;;5065123;28;20487;-45
2022/01/19 00:10:15;;;;;;;11.37;5.90;;;6.50;95.70;;;;;;5067108;28;20472;-45
2022/01/19 00:12:43;;;;;;;5.37;4.87;;;6.40;95.70;;;;;;5081898;27;21031;-45
2022/01/19 00:15:11;;;;;;;5.97;4.70;;;6.40;95.90;;;;;;5066581;28;20492;-46
2022/01/19 00:17:38;;;;;;;6.67;5.00;;;6.40;95.80;;;;;;5057882;28;20484;-45
2022/01/19 00:20:06;;;;;;;5.40;4.60;;;6.30;95.50;;;;;;5087729;27;20480;-45
2022/01/19 00:22:33;;;;;;;5.10;4.63;;;6.30;95.90;;;;;;5067570;28;20483;-44
2022/01/19 00:25:01;;;;;;;9.13;5.93;;;6.40;96.00;;;;;;5066195;28;20481;-45
2022/01/19 00:27:28;;;;;;;6.03;5.47;;;6.40;96.00;;;;;;5065214;27;20482;-45
2022/01/19 00:29:55;;;;;;;5.07;4.03;;;6.40;95.80;;;;;;5080971;27;20477;-45
2022/01/19 00:32:23;;;;;;;5.80;5.20;;;6.40;95.90;;;;;;5067234;28;20832;-45
2022/01/19 00:34:50;;;;;;;5.97;5.20;;;6.30;95.80;;;;;;5084837;27;20498;-45
2022/01/19 00:37:17;;;;;;;16.53;5.40;;;6.30;95.80;;;;;;5063837;27;20488;-46
2022/01/19 00:39:43;;;;;;;9.70;4.93;;;6.10;95.80;;;;;;5090430;27;20482;-45
2022/01/19 00:42:11;;;;;;;7.23;6.17;;;6.00;95.80;;;;;;5076327;28;20480;-45
2022/01/19 00:44:39;;;;;;;10.03;5.57;;;5.90;95.90;;;;;;5064553;28;20475;-45
2022/01/19 00:47:06;;;;;;;11.20;6.77;;;5.90;96.00;;;;;;5067895;27;20478;-49
2022/01/19 00:49:32;;;;;;;7.80;6.83;;;5.80;96.00;;;;;;5075838;28;20487;-45
2022/01/19 00:51:59;;;;;;;20.13;8.30;;;5.80;96.10;;;;;;5063776;28;20929;-45
2022/01/19 00:54:26;;;;;;;7.33;6.63;;;5.70;96.10;;;;;;5088480;27;20477;-46
2022/01/19 00:56:53;;;;;;;8.93;6.70;;;5.70;96.10;;;;;;5088432;27;20479;-46
2022/01/19 00:59:21;;;;;;;19.43;8.13;;;5.70;96.10;;;;;;5068141;28;20916;-45
2022/01/19 01:01:48;;;;;;;10.20;6.43;;;5.60;95.90;;;;;;5065158;28;20487;-45
2022/01/19 01:04:15;;;;;;;10.00;7.73;;;5.60;96.00;;;;;;5083439;27;20490;-45
2022/01/19 01:06:41;;;;;;;26.43;10.70;;;5.50;95.80;;;;;;5085407;27;21266;-45
2022/01/19 01:09:08;;;;;;;10.37;6.47;;;5.40;95.70;;;;;;5070625;27;21114;-46
2022/01/19 01:11:37;;;;;;;12.00;8.00;;;5.30;95.80;;;;;;5066047;28;20827;-46
2022/01/19 01:17:11;;;;;;;10.27;7.67;;;5.20;96.40;;;;;;5077115;28;20507;-45
2022/01/19 01:19:38;;;;;;;9.70;6.50;;;5.20;96.40;;;;;;5079062;28;20473;-45
2022/01/19 01:22:05;;;;;;;11.07;8.60;;;5.20;96.30;;;;;;5078865;28;20476;-46
2022/01/19 01:24:33;;;;;;;16.23;8.30;;;5.10;96.30;;;;;;5073343;28;20550;-47
2022/01/19 01:26:59;;;;;;;9.93;7.53;;;5.10;96.10;;;;;;5070821;28;20491;-45
2022/01/19 01:29:26;;;;;;;10.10;8.17;;;5.00;96.20;;;;;;5090939;28;21314;-45
2022/01/19 01:31:54;;;;;;;29.93;9.53;;;5.00;96.40;;;;;;5066727;28;20505;-46
2022/01/19 01:34:21;;;;;;;14.50;9.03;;;5.00;96.40;;;;;;5089794;28;20499;-45
2022/01/19 01:36:48;;;;;;;13.17;9.50;;;5.00;96.40;;;;;;5084001;28;20477;-45
2022/01/19 01:39:14;;;;;;;16.10;8.60;;;4.90;96.10;;;;;;5084832;28;20821;-45
2022/01/19 01:41:41;;;;;;;13.57;9.10;;;4.90;96.30;;;;;;5079563;28;20525;-46
2022/01/19 01:44:08;;;;;;;10.90;8.70;;;4.90;96.30;;;;;;5079158;28;20485;-45
2022/01/19 01:46:44;;;;;;;19.50;9.20;;;4.90;96.10;;;;;;5080601;28;21376;-45
2022/01/19 01:49:17;;;;;;;12.33;9.20;;;4.80;96.00;;;;;;5071932;28;20862;-45
2022/01/19 01:54:29;;;;;;;9.10;7.60;;;4.70;96.00;;;;;;5087905;28;20466;-45
2022/01/19 01:56:56;;;;;;;14.77;9.97;;;4.70;96.20;;;;;;5084251;27;20486;-45
2022/01/19 01:59:23;;;;;;;15.93;8.57;;;4.70;96.00;;;;;;5072357;28;20510;-45
2022/01/19 02:01:50;;;;;;;14.47;9.20;;;4.70;96.10;;;;;;5102860;27;20484;-45
2022/01/19 02:04:21;;;;;;;10.77;7.70;;;4.60;96.20;;;;;;5076909;27;20475;-49
2022/01/19 02:07:13;;;;;;;14.53;9.20;;;4.60;96.40;;;;;;5081695;28;20562;-45
2022/01/19 02:09:41;;;;;;;12.60;8.50;;;4.60;96.40;;;;;;5081182;28;20554;-45
2022/01/19 02:23:18;;;;;;;10.50;8.40;;;4.50;95.80;;;;;;5076567;28;20532;-45
2022/01/19 02:25:48;;;;;;;8.47;6.80;;;4.40;96.00;;;;;;5075698;28;20477;-45
2022/01/19 02:40:07;;;;;;;13.13;9.17;;;4.20;96.00;;;;;;4993717;28;21279;-45
2022/01/19 02:42:29;;;;;;;19.67;11.03;;;4.10;96.40;;;;;;5055368;28;20525;-45
2022/01/19 02:50:26;;;;;;;9.90;6.20;;;4.00;95.40;;;;;;5049133;28;20508;-48
2022/01/19 02:52:55;;;;;;;13.90;8.37;;;3.90;95.70;;;;;;5067905;28;20487;-45
2022/01/19 02:55:22;;;;;;;12.97;8.60;;;3.90;95.80;;;;;;5055245;28;20494;-45
2022/01/19 02:57:49;;;;;;;12.93;8.47;;;3.80;95.80;;;;;;5062171;28;20930;-45
2022/01/19 03:08:45;;;;;;;11.00;7.17;;;3.60;95.50;;;;;;5070820;28;20464;-45
2022/01/19 03:11:14;;;;;;;10.97;7.90;;;3.30;95.10;;;;;;5048540;28;20558;-45
2022/01/19 03:13:41;;;;;;;10.63;9.03;;;3.00;95.90;;;;;;5062053;28;20837;-45
2022/01/19 03:16:08;;;;;;;33.73;12.70;;;2.90;96.10;;;;;;5043448;28;20903;-46
2022/01/19 03:18:34;;;;;;;14.37;9.50;;;2.80;96.60;;;;;;5061076;28;20489;-45
2022/01/19 03:21:02;;;;;;;13.50;8.73;;;2.80;96.50;;;;;;5062200;28;20485;-47
2022/01/19 03:23:29;;;;;;;7.47;6.73;;;2.90;96.10;;;;;;5054066;28;20487;-45
2022/01/19 03:25:58;;;;;;;8.40;6.70;;;2.90;96.00;;;;;;5058874;28;20497;-45
2022/01/19 03:28:25;;;;;;;7.70;6.37;;;2.80;95.70;;;;;;5058882;28;20562;-44
2022/01/19 03:30:51;;;;;;;7.97;6.33;;;2.90;95.90;;;;;;5058819;28;20483;-45
2022/01/19 03:33:18;;;;;;;10.30;9.00;;;2.80;95.90;;;;;;5056599;28;20981;-44
2022/01/19 03:35:45;;;;;;;23.67;12.20;;;2.60;96.20;;;;;;5058838;28;20474;-45
2022/01/19 03:38:13;;;;;;;128.53;18.70;;;2.60;96.80;;;;;;5069262;28;20475;-45
2022/01/19 03:40:40;;;;;;;24.57;11.57;;;;;;;;;;5065748;28;20480;-45
2022/01/19 03:43:08;;;;;;;15.10;9.80;;;2.60;97.00;;;;;;5064553;28;20493;-45
2022/01/19 03:45:35;;;;;;;33.33;12.67;;;2.60;96.60;;;;;;5060656;28;20495;-45
2022/01/19 03:48:16;;;;;;;123.77;20.23;;;;;;;;;;5059176;28;20488;-45
2022/01/19 03:50:43;;;;;;;11.33;8.00;;;2.60;96.40;;;;;;5060299;28;20667;-45
2022/01/19 03:53:10;;;;;;;11.73;8.00;;;2.60;96.00;;;;;;5057119;28;20532;-45
2022/01/19 03:55:37;;;;;;;12.20;8.60;;;2.50;96.00;;;;;;5060381;28;20909;-45
2022/01/19 03:58:05;;;;;;;16.30;12.97;;;2.50;96.20;;;;;;5052817;28;20483;-45
2022/01/19 04:00:36;;;;;;;37.40;20.60;;;;;;;;;;5062112;28;20473;-45
2022/01/19 04:03:05;;;;;;;28.37;15.70;;;2.40;96.40;;;;;;5045203;28;20916;-45
2022/01/19 04:05:41;;;;;;;22.60;11.73;;;2.20;96.60;;;;;;5061299;28;21020;-45
2022/01/19 04:08:09;;;;;;;20.00;12.40;;;2.10;97.00;;;;;;5040904;28;20999;-46
2022/01/19 04:10:36;;;;;;;22.83;11.80;;;2.20;97.10;;;;;;5067690;28;20549;-45
2022/01/19 04:13:11;;;;;;;97.30;16.17;;;;;;;;;;5048358;28;20528;-45
2022/01/19 04:15:39;;;;;;;19.07;9.10;;;2.10;95.90;;;;;;5066919;28;20474;-45
2022/01/19 04:18:06;;;;;;;10.60;7.93;;;2.10;95.90;;;;;;5062079;28;20478;-45
2022/01/19 04:20:40;;;;;;;13.57;9.27;;;2.10;96.10;;;;;;5053351;28;20489;-44
2022/01/19 04:23:08;;;;;;;15.50;10.57;;;2.10;96.20;;;;;;5066508;28;20556;-45
2022/01/19 04:25:35;;;;;;;14.87;11.30;;;2.20;96.40;;;;;;5063065;28;20562;-45
2022/01/19 04:28:07;;;;;;;13.30;9.50;;;2.20;96.20;;;;;;5060683;28;21014;-45
2022/01/19 04:30:34;;;;;;;15.13;10.13;;;2.20;96.00;;;;;;5057556;28;21148;-45
2022/01/19 04:33:08;;;;;;;11.87;8.87;;;2.20;95.80;;;;;;5060533;28;20482;-44
2022/01/19 04:35:44;;;;;;;24.27;11.70;;;2.10;96.00;;;;;;5074143;28;20525;-45
2022/01/19 04:44:13;;;;;;;12.43;8.97;;;1.80;96.70;;;;;;5079615;28;20480;-45
2022/01/19 05:03:32;;;;;;;17.40;9.23;;;1.90;95.80;;;;;;5048830;28;20488;-45
2022/01/19 05:06:05;;;;;;;18.90;9.13;;;1.90;95.90;;;;;;5074438;28;20481;-44
2022/01/19 05:08:50;;;;;;;14.70;9.70;;;1.80;96.30;;;;;;5083067;28;20522;-44
2022/01/19 05:14:01;;;;;;;13.53;8.90;;;1.50;95.80;;;;;;5060576;28;21197;-44
2022/01/19 05:16:28;;;;;;;11.20;8.70;;;;;;;;;;5063120;28;20479;-45
2022/01/19 05:18:55;;;;;;;18.20;8.40;;;1.10;96.00;;;;;;5060363;28;20490;-45
2022/01/19 05:21:23;;;;;;;12.43;8.13;;;1.00;96.20;;;;;;5081771;27;20485;-45
2022/01/19 05:23:50;;;;;;;9.57;6.40;;;1.10;96.40;;;;;;5079893;27;20476;-44
2022/01/19 05:26:17;;;;;;;12.43;8.00;;;1.20;96.20;;;;;;5050525;28;20494;-45
2022/01/19 05:28:44;;;;;;;12.10;7.90;;;1.20;96.10;;;;;;5096496;27;20468;-45
2022/01/19 05:31:11;;;;;;;10.47;7.30;;;1.30;96.30;;;;;;5057354;28;21049;-45
2022/01/19 05:33:38;;;;;;;9.93;7.40;;;1.30;96.10;;;;;;5046085;28;20476;-45
2022/01/19 05:36:05;;;;;;;13.47;6.37;;;1.30;95.80;;;;;;5050714;28;20489;-45
2022/01/19 05:38:34;;;;;;;11.73;8.00;;;1.10;96.30;;;;;;5071321;28;20481;-45
2022/01/19 05:41:00;;;;;;;11.33;7.83;;;1.00;96.60;;;;;;5056963;28;20477;-45
2022/01/19 05:43:27;;;;;;;18.67;9.77;;;1.00;96.90;;;;;;5056169;28;20492;-45
2022/01/19 05:45:54;;;;;;;14.17;9.90;;;1.00;96.90;;;;;;5048290;28;20475;-45
2022/01/19 05:48:21;;;;;;;14.30;9.53;;;0.90;97.00;;;;;;5072065;28;20489;-46
2022/01/19 05:50:48;;;;;;;12.50;8.90;;;0.80;97.20;;;;;;5061974;28;20913;-45
2022/01/19 05:53:16;;;;;;;16.63;9.73;;;0.80;97.60;;;;;;5055771;28;20497;-45
2022/01/19 05:55:44;;;;;;;14.27;9.00;;;0.80;97.50;;;;;;5058385;28;20481;-45
2022/01/19 05:58:11;;;;;;;11.30;7.63;;;0.80;97.30;;;;;;5060446;28;20520;-45
2022/01/19 06:00:38;;;;;;;15.53;9.10;;;1.00;97.10;;;;;;5062176;28;21041;-45
2022/01/19 06:03:05;;;;;;;12.03;7.60;;;1.10;96.90;;;;;;5054458;28;21015;-45
2022/01/19 06:05:33;;;;;;;11.13;7.10;;;1.10;96.50;;;;;;5061899;28;20549;-45
2022/01/19 06:08:16;;;;;;;15.10;8.30;;;1.10;96.50;;;;;;5061127;28;20542;-45
2022/01/19 06:10:44;;;;;;;12.40;8.10;;;1.20;96.40;;;;;;5063048;28;20906;-46
2022/01/19 06:13:13;;;;;;;14.27;9.20;;;1.10;96.40;;;;;;5057172;28;20513;-46
2022/01/19 06:15:40;;;;;;;23.30;10.73;;;1.00;96.60;;;;;;5049855;28;20475;-45
2022/01/19 06:18:06;;;;;;;13.73;9.13;;;0.80;96.90;;;;;;5056896;28;20472;-45
2022/01/19 06:20:33;;;;;;;16.77;9.43;;;0.70;97.00;;;;;;5055717;28;20490;-45
2022/01/19 06:23:00;;;;;;;19.20;11.00;;;0.60;97.30;;;;;;5055661;28;20485;-46
2022/01/19 06:25:27;;;;;;;24.23;12.50;;;0.50;97.60;;;;;;5062426;28;20567;-45
2022/01/19 06:27:55;;;;;;;29.23;11.47;;;0.50;97.90;;;;;;5060364;28;20504;-45
2022/01/19 06:30:22;;;;;;;20.83;10.77;;;0.60;98.20;;;;;;5056896;28;20494;-45
2022/01/19 06:32:49;;;;;;;14.97;9.47;;;0.80;98.00;;;;;;5055405;28;20494;-45
2022/01/19 06:35:16;;;;;;;14.50;9.90;;;0.90;97.50;;;;;;5049099;28;20497;-45
2022/01/19 06:37:42;;;;;;;16.57;9.87;;;1.00;97.10;;;;;;5050524;28;20484;-45
2022/01/19 06:40:12;;;;;;;15.03;8.97;;;1.00;96.90;;;;;;5059133;28;20576;-47
2022/01/19 06:42:39;;;;;;;12.73;9.17;;;1.10;96.70;;;;;;5054463;28;20473;-45
2022/01/19 06:45:09;;;;;;;14.30;9.60;;;1.10;96.30;;;;;;5054541;28;21021;-45
2022/01/19 06:47:36;;;;;;;11.90;9.13;;;1.10;96.60;;;;;;5036765;28;20998;-45
2022/01/19 06:50:04;;;;;;;17.83;10.10;;;1.20;96.80;;;;;;5092530;27;20489;-45
2022/01/19 06:52:31;;;;;;;16.50;9.60;;;1.20;96.60;;;;;;5044270;28;20476;-45
2022/01/19 06:54:57;;;;;;;18.77;9.63;;;1.20;96.40;;;;;;5088863;27;20484;-45
2022/01/19 06:57:24;;;;;;;17.23;10.10;;;1.10;96.10;;;;;;5048804;28;20500;-45
2022/01/19 06:59:51;;;;;;;11.87;8.83;;;1.10;95.90;;;;;;5054945;28;20752;-45
2022/01/19 07:02:19;;;;;;;14.23;8.90;;;1.10;96.00;;;;;;5059984;28;20481;-46
2022/01/19 07:04:49;;;;;;;16.93;9.70;;;1.10;95.80;;;;;;5057734;28;20487;-45
2022/01/19 07:07:17;;;;;;;16.00;9.37;;;1.10;95.70;;;;;;5051503;28;20470;-45
2022/01/19 07:09:44;;;;;;;17.97;12.10;;;1.10;95.90;;;;;;5050227;28;20519;-45
2022/01/19 07:12:12;;;;;;;16.50;9.03;;;1.10;95.90;;;;;;5057102;28;20463;-46
2022/01/19 07:14:39;;;;;;;14.67;8.50;;;1.10;95.90;;;;;;5065849;28;20493;-45
2022/01/19 07:17:06;;;;;;;22.47;9.83;;;1.00;96.10;;;;;;5061543;28;20492;-45
2022/01/19 07:19:34;;;;;;;22.70;12.90;;;1.00;96.30;;;;;;5058473;28;20920;-45
2022/01/19 07:22:01;;;;;;;15.33;8.50;;;1.00;96.20;;;;;;5060301;28;20490;-45
2022/01/19 07:24:28;;;;;;;13.53;9.57;;;1.10;95.90;;;;;;5048630;28;20477;-45
2022/01/19 07:26:55;;;;;;;21.80;11.83;;;0.80;95.50;;;;;;5053861;28;20494;-45
2022/01/19 07:29:22;;;;;;;17.53;9.23;;;0.50;96.40;;;;;;5068461;28;20490;-45
2022/01/19 07:31:48;;;;;;;22.33;11.40;;;0.40;98.20;;;;;;5045298;28;20566;-45
2022/01/19 07:34:15;;;;;;;19.57;10.53;;;0.60;99.30;;;;;;5067953;28;20535;-45
2022/01/19 07:36:43;;;;;;;29.47;15.50;;;0.70;99.60;;;;;;5060964;27;20487;-45
2022/01/19 07:39:10;;;;;;;15.17;9.43;;;0.80;99.70;;;;;;5101413;27;20483;-44
2022/01/19 07:41:38;;;;;;;21.63;9.50;;;0.90;99.90;;;;;;5078867;27;20516;-45
2022/01/19 07:44:05;;;;;;;30.10;14.07;;;1.00;99.90;;;;;;5043761;28;20582;-45
2022/01/19 07:46:32;;;;;;;42.00;17.37;;;1.10;99.90;;;;;;5071688;28;20482;-45
2022/01/19 07:48:59;;;;;;;15.87;9.00;;;1.10;99.90;;;;;;5049870;28;20478;-45
2022/01/19 07:51:27;;;;;;;30.53;12.57;;;1.10;99.90;;;;;;5061196;28;20494;-45
2022/01/19 07:53:55;;;;;;;23.70;14.60;;;1.10;99.90;;;;;;5060873;28;20496;-44
2022/01/19 07:56:22;;;;;;;16.93;7.60;;;1.20;99.90;;;;;;5051047;28;20490;-45
2022/01/19 07:58:49;;;;;;;26.80;14.20;;;1.20;99.90;;;;;;5042896;28;20489;-45
2022/01/19 08:01:16;;;;;;;35.97;16.53;;;1.30;99.90;;;;;;5071134;27;20479;-45
2022/01/19 08:03:43;;;;;;;42.70;23.27;;;1.30;99.90;;;;;;5072802;27;20535;-45
2022/01/19 08:06:09;;;;;;;19.50;9.40;;;1.30;99.90;;;;;;5057272;28;21232;-45
2022/01/19 08:08:36;;;;;;;26.70;14.07;;;1.30;99.90;;;;;;5060228;28;20536;-45
2022/01/19 08:11:04;;;;;;;34.53;15.23;;;1.40;99.90;;;;;;5058806;28;20668;-45
2022/01/19 08:13:31;;;;;;;28.13;14.73;;;1.40;99.90;;;;;;5046249;28;20485;-45
2022/01/19 08:15:58;;;;;;;37.10;20.40;;;1.50;99.90;;;;;;5046852;27;20487;-45
2022/01/19 08:18:25;;;;;;;30.13;15.40;;;1.50;99.90;;;;;;5077669;27;21295;-45
2022/01/19 08:20:51;;;;;;;31.53;15.10;;;1.50;99.90;;;;;;5032470;28;21131;-45
2022/01/19 08:23:18;;;;;;;34.47;17.27;;;1.60;99.90;;;;;;5030043;28;20512;-45
2022/01/19 08:25:45;;;;;;;37.67;19.77;;;1.60;99.90;;;;;;5043727;28;20490;-44
2022/01/19 08:28:13;;;;;;;32.23;16.30;;;1.60;99.90;;;;;;5036862;28;20775;-44
2022/01/19 08:30:40;;;;;;;20.53;11.27;;;1.60;99.90;;;;;;5044877;28;20471;-45
2022/01/19 08:33:07;;;;;;;25.67;13.97;;;1.60;99.90;;;;;;5041484;28;20889;-44
2022/01/19 08:35:33;;;;;;;30.40;16.80;;;1.60;99.90;;;;;;5038146;28;20864;-45
2022/01/19 08:38:00;;;;;;;9.27;5.00;;;1.60;99.90;;;;;;5030471;28;20677;-45
2022/01/19 08:40:30;;;;;;;29.60;14.27;;;1.70;99.90;;;;;;5034152;28;20485;-45
2022/01/19 08:42:57;;;;;;;50.60;28.97;;;1.70;99.90;;;;;;5041919;28;20997;-48
2022/01/19 08:45:25;;;;;;;42.57;19.60;;;1.70;99.90;;;;;;5053787;28;20543;-45
2022/01/19 08:47:52;;;;;;;33.73;18.77;;;1.70;99.90;;;;;;5051363;28;20575;-45
2022/01/19 08:50:19;;;;;;;46.53;25.90;;;1.70;99.90;;;;;;5049387;28;20802;-45
2022/01/19 08:52:48;;;;;;;34.37;16.93;;;1.80;99.90;;;;;;5046653;28;20494;-45
2022/01/19 08:55:16;;;;;;;46.80;19.60;;;1.80;99.90;;;;;;5039794;28;20496;-45
2022/01/19 08:57:43;;;;;;;37.87;16.87;;;1.80;99.90;;;;;;5026466;28;20501;-45
2022/01/19 09:00:12;;;;;;;44.43;25.27;;;1.80;99.90;;;;;;5030609;28;20494;-45
2022/01/19 09:02:40;;;;;;;48.83;25.40;;;1.70;99.90;;;;;;5059708;28;20476;-45
2022/01/19 09:05:08;;;;;;;41.33;23.17;;;1.70;99.90;;;;;;5045403;28;20475;-45
2022/01/19 09:07:36;;;;;;;39.43;15.30;;;1.70;99.90;;;;;;5043157;28;20980;-45
2022/01/19 09:10:03;;;;;;;39.50;21.20;;;1.70;99.90;;;;;;5043647;28;21056;-44
2022/01/19 09:12:30;;;;;;;50.13;27.50;;;1.70;99.90;;;;;;5047615;28;20824;-45
2022/01/19 09:14:57;;;;;;;44.67;25.20;;;1.80;99.90;;;;;;5035944;28;20489;-45
2022/01/19 09:17:24;;;;;;;17.27;8.73;;;1.80;99.90;;;;;;5042406;28;20476;-45
2022/01/19 09:19:52;;;;;;;27.00;14.03;;;1.80;99.90;;;;;;5044797;28;20906;-46
2022/01/19 09:22:19;;;;;;;46.47;23.40;;;1.90;99.90;;;;;;5033695;28;21296;-46
2022/01/19 09:24:45;;;;;;;39.53;21.07;;;1.90;99.90;;;;;;5042617;28;20941;-46
2022/01/19 09:27:14;;;;;;;51.07;26.97;;;1.90;99.90;;;;;;5063780;28;20502;-46
2022/01/19 09:29:42;;;;;;;48.40;22.97;;;2.00;99.90;;;;;;5043756;28;20485;-46
2022/01/19 09:32:11;;;;;;;43.03;24.43;;;2.00;99.90;;;;;;5050687;28;21180;-46
2022/01/19 09:34:39;;;;;;;38.37;20.30;;;2.00;99.90;;;;;;5037232;28;21116;-46
2022/01/19 09:37:07;;;;;;;49.47;25.57;;;2.00;99.90;;;;;;5051040;28;20490;-46
2022/01/19 09:39:34;;;;;;;24.70;14.77;;;2.10;99.90;;;;;;5043751;28;20479;-46
2022/01/19 09:42:01;;;;;;;47.40;24.47;;;2.10;99.90;;;;;;5053189;28;20482;-49
2022/01/19 09:44:29;;;;;;;43.73;24.33;;;2.00;99.90;;;;;;5039824;28;22364;-46
2022/01/19 09:46:56;;;;;;;36.93;20.93;;;2.10;99.90;;;;;;5042033;28;20485;-46
2022/01/19 09:49:23;;;;;;;33.33;18.53;;;2.10;99.90;;;;;;5041082;28;20532;-46
2022/01/19 09:51:53;;;;;;;36.10;16.93;;;2.20;99.90;;;;;;5039630;28;20848;-46
2022/01/19 09:54:23;;;;;;;42.50;25.07;;;2.20;99.90;;;;;;5039624;28;20483;-46
2022/01/19 09:56:50;;;;;;;20.63;9.40;;;;;;;;;;5040545;28;20859;-47
2022/01/19 09:59:17;;;;;;;25.17;15.90;;;2.30;99.90;;;;;;5037893;28;20967;-46
2022/01/19 10:01:55;;;;;;;33.03;19.30;;;2.30;99.90;;;;;;5033443;28;20487;-46
2022/01/19 10:04:24;;;;;;;41.90;22.73;;;2.20;99.90;;;;;;5022338;28;20510;-46
2022/01/19 10:07:10;;;;;;;36.27;20.87;;;2.30;99.90;;;;;;5046273;28;20475;-46
2022/01/19 10:09:49;;;;;;;47.63;25.77;;;2.30;99.90;;;;;;5049799;28;20826;-46
2022/01/19 10:17:57;;;;;;;26.60;12.77;;;2.50;99.90;;;;;;5063799;28;20565;-45
2022/01/19 10:20:25;;;;;;;32.50;18.20;;;2.50;99.90;;;;;;5066009;28;21143;-46
2022/01/19 10:22:52;;;;;;;35.93;21.03;;;2.50;99.90;;;;;;5063876;28;20477;-46
2022/01/19 10:25:20;;;;;;;37.07;19.20;;;2.50;99.90;;;;;;5066958;28;20485;-47
2022/01/19 10:27:47;;;;;;;40.20;19.33;;;2.60;99.90;;;;;;5064873;28;20476;-45
2022/01/19 10:30:23;;;;;;;30.40;15.93;;;2.60;99.90;;;;;;5061628;28;21030;-46
2022/01/19 10:32:55;;;;;;;34.53;16.97;;;2.70;99.90;;;;;;5071091;28;20501;-45
2022/01/19 10:35:25;;;;;;;22.50;12.00;;;2.70;99.90;;;;;;5051880;28;21101;-45
2022/01/19 10:38:09;;;;;;;26.67;13.17;;;2.70;99.90;;;;;;5051463;28;20481;-44
2022/01/19 10:40:38;;;;;;;31.73;19.00;;;2.60;99.90;;;;;;5062900;28;20477;-46
2022/01/19 10:43:26;;;;;;;35.43;15.70;;;2.70;99.90;;;;;;5056639;28;20482;-45
2022/01/19 10:45:54;;;;;;;25.73;11.00;;;2.70;99.90;;;;;;5049203;28;20909;-44
2022/01/19 10:48:34;;;;;;;27.83;15.13;;;2.70;99.90;;;;;;5065519;28;20479;-46
2022/01/19 10:51:09;;;;;;;18.87;9.20;;;2.70;99.90;;;;;;5057452;28;20879;-44
2022/01/19 10:53:36;;;;;;;31.60;13.27;;;2.80;99.90;;;;;;5060840;28;20495;-45
2022/01/19 10:56:05;;;;;;;24.20;10.93;;;2.70;99.90;;;;;;5065492;28;20481;-46
2022/01/19 10:58:32;;;;;;;38.60;22.40;;;2.70;99.90;;;;;;5066773;28;21256;-46
2022/01/19 11:01:00;;;;;;;37.33;11.40;;;2.70;99.90;;;;;;5056768;28;20477;-44
2022/01/19 11:03:28;;;;;;;24.27;11.53;;;2.80;99.90;;;;;;5054946;28;20468;-45
2022/01/19 11:05:57;;;;;;;41.87;21.03;;;2.80;99.90;;;;;;5059882;28;20503;-46
2022/01/19 11:08:27;;;;;;;21.40;9.03;;;2.90;99.90;;;;;;5070399;28;20481;-45
2022/01/19 11:10:56;;;;;;;28.23;13.07;;;2.90;99.90;;;;;;5064925;28;20470;-45
2022/01/19 11:13:29;;;;;;;32.80;16.60;;;2.90;99.90;;;;;;5054147;28;20490;-46
2022/01/19 11:15:57;;;;;;;17.83;8.00;;;2.90;99.90;;;;;;5050232;28;20568;-44
2022/01/19 11:18:26;;;;;;;44.33;23.63;;;2.90;99.90;;;;;;5053492;28;20490;-45
2022/01/19 11:20:54;;;;;;;27.83;11.87;;;2.90;99.90;;;;;;5063706;28;20486;-45
2022/01/19 11:23:31;;;;;;;30.67;16.03;;;2.90;99.90;;;;;;5056500;28;20931;-47
2022/01/19 11:26:01;;;;;;;17.77;10.03;;;2.90;99.90;;;;;;5067719;28;21044;-45
2022/01/19 11:28:34;;;;;;;33.17;14.73;;;2.90;99.90;;;;;;5055787;28;21039;-48
2022/01/19 11:31:03;;;;;;;25.63;12.70;;;2.90;99.90;;;;;;5065745;28;20485;-45
2022/01/19 11:33:31;;;;;;;24.47;11.80;;;3.00;99.90;;;;;;5064773;28;20866;-46
2022/01/19 11:36:02;;;;;;;40.23;22.07;;;3.00;99.90;;;;;;5065479;28;20481;-46
2022/01/19 11:38:41;;;;;;;28.90;14.20;;;3.00;99.90;;;;;;5068241;28;20616;-45
2022/01/19 11:41:40;;;;;;;35.43;17.53;;;3.00;99.90;;;;;;5050038;28;20517;-45
2022/01/19 11:44:11;;;;;;;27.93;12.60;;;3.00;99.90;;;;;;5047586;28;20477;-45
2022/01/19 11:46:43;;;;;;;42.10;13.63;;;3.00;99.90;;;;;;5046228;28;20486;-46
2022/01/19 11:49:10;;;;;;;20.20;11.07;;;;;;;;;;5051084;28;20493;-46
2022/01/19 11:51:39;;;;;;;41.13;20.10;;;3.10;99.90;;;;;;5041609;28;20478;-45
2022/01/19 11:54:10;;;;;;;32.63;17.30;;;3.00;99.90;;;;;;5039194;28;20900;-46
2022/01/19 11:57:05;;;;;;;35.87;16.10;;;3.10;99.90;;;;;;5046740;28;20956;-46
2022/01/19 11:59:50;;;;;;;29.83;16.70;;;3.10;99.90;;;;;;5040615;28;20590;-46
2022/01/19 12:02:36;;;;;;;28.20;13.93;;;3.00;99.90;;;;;;5044875;28;20525;-45
2022/01/19 12:05:24;;;;;;;47.80;24.50;;;2.90;99.90;;;;;;5043424;28;20518;-46
2022/01/19 12:07:53;;;;;;;24.70;11.23;;;3.00;99.90;;;;;;5044938;28;20533;-46
2022/01/19 12:10:22;;;;;;;32.57;14.80;;;3.10;99.90;;;;;;5046283;28;20586;-45
2022/01/19 12:16:49;;;;;;;28.67;14.10;;;3.00;99.90;;;;;;5021316;28;20484;-46
2022/01/19 12:19:20;;;;;;;35.50;15.10;;;3.00;99.90;;;;;;5044157;28;20889;-45
2022/01/19 12:21:51;;;;;;;46.07;19.10;;;3.00;99.90;;;;;;5071422;27;20486;-46
2022/01/19 12:24:25;;;;;;;31.27;11.27;;;3.00;99.90;;;;;;5053741;28;20519;-46
2022/01/19 12:26:59;;;;;;;44.37;24.83;;;3.00;99.90;;;;;;5062475;28;20877;-45
2022/01/19 12:29:47;;;;;;;45.07;22.27;;;3.00;99.90;;;;;;5058100;28;21715;-45
2022/01/19 12:32:50;;;;;;;31.73;16.03;;;3.20;99.90;;;;;;5042257;28;20486;-45
2022/01/19 12:35:35;;;;;;;29.77;12.47;;;3.20;99.90;;;;;;5049836;28;20500;-45
2022/01/19 12:38:06;;;;;;;44.57;14.70;;;3.20;99.90;;;;;;5053935;28;20652;-46
2022/01/19 12:40:49;;;;;;;30.33;14.13;;;3.30;99.90;;;;;;5051497;28;20492;-45
2022/01/19 12:43:37;;;;;;;33.87;14.03;;;3.20;99.90;;;;;;5038054;28;20632;-45
2022/01/19 12:46:08;;;;;;;46.07;22.83;;;3.30;99.90;;;;;;5071232;28;20479;-46
2022/01/19 12:48:41;;;;;;;31.73;15.93;;;3.30;99.90;;;;;;5068736;28;20494;-46
2022/01/19 12:51:39;;;;;;;28.33;14.20;;;3.40;99.90;;;;;;5054204;28;20473;-45
2022/01/19 12:54:08;;;;;;;23.60;10.37;;;3.40;99.90;;;;;;5049949;27;21019;-46
2022/01/19 12:56:35;;;;;;;43.97;14.87;;;3.40;99.90;;;;;;5053413;28;21086;-46
2022/01/19 12:59:04;;;;;;;34.13;16.43;;;3.40;99.90;;;;;;5050615;28;20480;-45
2022/01/19 13:01:31;;;;;;;29.43;15.20;;;3.30;99.90;;;;;;5044028;28;20814;-50
2022/01/19 13:03:58;;;;;;;41.70;17.07;;;3.40;99.90;;;;;;5049491;28;21065;-46
2022/01/19 13:06:27;;;;;;;42.57;19.90;;;3.40;99.90;;;;;;5043893;28;20498;-46
2022/01/19 13:09:01;;;;;;;49.77;25.63;;;3.30;99.90;;;;;;5050439;28;20836;-46
2022/01/19 13:11:36;;;;;;;30.10;13.30;;;3.40;99.90;;;;;;5040587;28;21059;-46
2022/01/19 13:14:05;;;;;;;34.07;14.77;;;3.40;99.90;;;;;;5042492;28;20490;-46
2022/01/19 13:16:41;;;;;;;29.97;11.70;;;3.40;99.90;;;;;;5044808;28;21085;-45
2022/01/19 13:19:11;;;;;;;36.70;18.33;;;3.40;99.90;;;;;;5042693;28;20619;-46
2022/01/19 13:21:39;;;;;;;43.17;15.63;;;3.40;99.90;;;;;;5045079;28;20709;-46
2022/01/19 13:24:13;;;;;;;41.10;20.33;;;3.50;99.90;;;;;;5033471;28;20478;-46
2022/01/19 13:26:45;;;;;;;37.90;18.77;;;3.40;99.90;;;;;;5042828;28;20483;-46
2022/01/19 13:29:28;;;;;;;34.20;12.83;;;3.40;99.90;;;;;;5046813;28;20901;-46
2022/01/19 13:32:07;;;;;;;52.13;26.43;;;3.40;99.90;;;;;;5041005;28;22292;-45
2022/01/19 13:34:48;;;;;;;32.77;11.37;;;3.50;99.90;;;;;;5037941;28;20487;-46
2022/01/19 13:37:15;;;;;;;25.90;12.70;;;3.40;99.90;;;;;;5038660;28;20961;-46
2022/01/19 13:39:43;;;;;;;38.23;16.40;;;3.40;99.90;;;;;;5028599;28;21467;-46
2022/01/19 13:42:10;;;;;;;47.47;18.37;;;3.40;99.90;;;;;;5057879;28;21104;-46
2022/01/19 13:44:44;;;;;;;31.93;12.37;;;3.40;99.90;;;;;;5055162;28;20478;-46
2022/01/19 13:47:16;;;;;;;34.47;15.27;;;3.40;99.90;;;;;;5042396;28;20470;-46
2022/01/19 13:49:53;;;;;;;58.87;23.33;;;3.30;99.90;;;;;;5044124;28;20470;-46
2022/01/19 13:52:22;;;;;;;32.17;11.17;;;3.30;99.90;;;;;;5038906;28;20832;-46
2022/01/19 13:54:51;;;;;;;36.60;16.07;;;3.30;99.90;;;;;;5053154;28;20508;-46
2022/01/19 13:57:27;;;;;;;34.57;16.20;;;3.40;99.90;;;;;;5053189;28;20840;-47
2022/01/19 13:59:54;;;;;;;31.80;15.83;;;3.40;99.90;;;;;;5038344;28;20818;-46
2022/01/19 14:02:22;;;;;;;55.23;30.43;;;3.40;99.90;;;;;;5049047;28;20557;-46
2022/01/19 14:04:54;;;;;;;41.70;15.60;;;3.40;99.90;;;;;;5055217;28;21163;-46
2022/01/19 14:07:21;;;;;;;33.83;15.77;;;3.40;99.90;;;;;;5053000;28;20474;-48
2022/01/19 14:09:49;;;;;;;41.20;22.47;;;3.40;99.90;;;;;;5074367;28;20903;-46
2022/01/19 14:12:19;;;;;;;27.33;12.47;;;3.40;99.90;;;;;;5059284;28;20507;-46